sensor_id;sensor_type;location;lat;lon;timestamp;P1;durP1;ratioP1;P2;durP2;ratioP2
52708;SDS011;38606;52.986;6.980;2022-11-20T00:00:08;29.88;;;17.15;;
52708;SDS011;38606;52.986;6.980;2022-11-20T00:02:34;31.83;;;16.02;;
52708;SDS011;38606;52.986;6.980;2022-11-20T00:05:00;30.50;;;17.25;;
52708;SDS011;38606;52.986;6.980;2022-11-20T00:07:26;29.25;;;17.27;;
52708;SDS011;38606;52.986;6.980;2022-11-20T00:09:51;34.17;;;16.55;;
52708;SDS011;38606;52.986;6.980;2022-11-20T00:12:17;28.25;;;15.95;;
52708;SDS011;38606;52.986;6.980;2022-11-20T00:14:43;32.33;;;16.73;;
52708;SDS011;38606;52.986;6.980;2022-11-20T00:17:08;28.83;;;16.48;;
52708;SDS011;38606;52.986;6.980;2022-11-20T00:19:34;30.15;;;16.80;;
52708;SDS011;38606;52.986;6.980;2022-11-20T00:22:00;26.10;;;15.07;;
52708;SDS011;38606;52.986;6.980;2022-11-20T00:24:25;26.85;;;15.32;;
52708;SDS011;38606;52.986;6.980;2022-11-20T00:26:51;30.92;;;16.95;;
52708;SDS011;38606;52.986;6.980;2022-11-20T00:29:17;27.90;;;15.80;;
52708;SDS011;38606;52.986;6.980;2022-11-20T00:31:42;28.20;;;15.98;;
52708;SDS011;38606;52.986;6.980;2022-11-20T00:34:09;28.67;;;15.90;;
52708;SDS011;38606;52.986;6.980;2022-11-20T00:36:35;32.83;;;17.48;;
52708;SDS011;38606;52.986;6.980;2022-11-20T00:39:00;29.15;;;17.17;;
52708;SDS011;38606;52.986;6.980;2022-11-20T00:41:27;29.50;;;17.23;;
52708;SDS011;38606;52.986;6.980;2022-11-20T00:43:54;32.85;;;16.75;;
52708;SDS011;38606;52.986;6.980;2022-11-20T00:46:23;28.17;;;15.70;;
52708;SDS011;38606;52.986;6.980;2022-11-20T00:48:50;28.75;;;15.93;;
52708;SDS011;38606;52.986;6.980;2022-11-20T00:51:17;28.52;;;16.67;;
52708;SDS011;38606;52.986;6.980;2022-11-20T00:53:44;30.80;;;16.63;;
52708;SDS011;38606;52.986;6.980;2022-11-20T00:56:11;26.88;;;15.90;;
52708;SDS011;38606;52.986;6.980;2022-11-20T00:58:39;28.45;;;16.50;;
52708;SDS011;38606;52.986;6.980;2022-11-20T01:01:07;27.02;;;15.48;;
52708;SDS011;38606;52.986;6.980;2022-11-20T01:03:37;30.13;;;17.00;;
52708;SDS011;38606;52.986;6.980;2022-11-20T01:06:06;27.50;;;15.77;;
52708;SDS011;38606;52.986;6.980;2022-11-20T01:08:35;29.92;;;17.08;;
52708;SDS011;38606;52.986;6.980;2022-11-20T01:11:02;24.85;;;15.57;;
52708;SDS011;38606;52.986;6.980;2022-11-20T01:13:30;26.33;;;15.07;;
52708;SDS011;38606;52.986;6.980;2022-11-20T01:16:13;30.85;;;15.25;;
52708;SDS011;38606;52.986;6.980;2022-11-20T01:18:44;26.20;;;14.65;;
52708;SDS011;38606;52.986;6.980;2022-11-20T01:21:12;26.65;;;15.25;;
52708;SDS011;38606;52.986;6.980;2022-11-20T01:23:43;23.25;;;14.55;;
52708;SDS011;38606;52.986;6.980;2022-11-20T01:26:11;28.85;;;14.85;;
52708;SDS011;38606;52.986;6.980;2022-11-20T01:28:39;27.48;;;15.20;;
52708;SDS011;38606;52.986;6.980;2022-11-20T01:33:54;27.13;;;15.00;;
52708;SDS011;38606;52.986;6.980;2022-11-20T01:36:22;23.02;;;13.18;;
52708;SDS011;38606;52.986;6.980;2022-11-20T01:38:53;25.90;;;13.98;;
52708;SDS011;38606;52.986;6.980;2022-11-20T01:41:20;25.23;;;13.63;;
52708;SDS011;38606;52.986;6.980;2022-11-20T01:44:05;24.48;;;13.48;;
52708;SDS011;38606;52.986;6.980;2022-11-20T01:46:35;24.60;;;13.73;;
52708;SDS011;38606;52.986;6.980;2022-11-20T01:49:04;22.90;;;13.02;;
52708;SDS011;38606;52.986;6.980;2022-11-20T01:51:41;23.20;;;13.10;;
52708;SDS011;38606;52.986;6.980;2022-11-20T01:54:12;24.00;;;13.90;;
52708;SDS011;38606;52.986;6.980;2022-11-20T01:56:43;20.92;;;12.75;;
52708;SDS011;38606;52.986;6.980;2022-11-20T01:59:12;24.25;;;13.30;;
52708;SDS011;38606;52.986;6.980;2022-11-20T02:01:40;24.45;;;13.02;;
52708;SDS011;38606;52.986;6.980;2022-11-20T02:04:06;22.10;;;12.73;;
52708;SDS011;38606;52.986;6.980;2022-11-20T02:06:35;21.13;;;12.43;;
52708;SDS011;38606;52.986;6.980;2022-11-20T02:09:13;20.10;;;12.13;;
52708;SDS011;38606;52.986;6.980;2022-11-20T02:11:40;20.25;;;11.95;;
52708;SDS011;38606;52.986;6.980;2022-11-20T02:14:05;23.20;;;13.45;;
52708;SDS011;38606;52.986;6.980;2022-11-20T02:16:39;21.63;;;12.40;;
52708;SDS011;38606;52.986;6.980;2022-11-20T02:19:13;19.35;;;11.73;;
52708;SDS011;38606;52.986;6.980;2022-11-20T02:22:09;21.17;;;12.57;;
52708;SDS011;38606;52.986;6.980;2022-11-20T02:24:50;20.73;;;12.73;;
52708;SDS011;38606;52.986;6.980;2022-11-20T02:27:16;19.65;;;11.48;;
52708;SDS011;38606;52.986;6.980;2022-11-20T02:32:22;19.90;;;11.35;;
52708;SDS011;38606;52.986;6.980;2022-11-20T02:34:50;20.58;;;12.68;;
52708;SDS011;38606;52.986;6.980;2022-11-20T02:37:16;22.48;;;12.27;;
52708;SDS011;38606;52.986;6.980;2022-11-20T02:39:43;24.25;;;12.43;;
52708;SDS011;38606;52.986;6.980;2022-11-20T02:42:11;21.55;;;11.93;;
52708;SDS011;38606;52.986;6.980;2022-11-20T02:44:37;22.38;;;12.55;;
52708;SDS011;38606;52.986;6.980;2022-11-20T02:47:02;18.88;;;11.77;;
52708;SDS011;38606;52.986;6.980;2022-11-20T02:49:28;20.40;;;12.52;;
52708;SDS011;38606;52.986;6.980;2022-11-20T02:51:54;19.92;;;12.38;;
52708;SDS011;38606;52.986;6.980;2022-11-20T02:54:19;25.10;;;12.98;;
52708;SDS011;38606;52.986;6.980;2022-11-20T02:56:45;19.55;;;11.27;;
52708;SDS011;38606;52.986;6.980;2022-11-20T02:59:11;18.45;;;11.30;;
52708;SDS011;38606;52.986;6.980;2022-11-20T03:01:36;19.15;;;11.82;;
52708;SDS011;38606;52.986;6.980;2022-11-20T03:04:02;21.70;;;12.77;;
52708;SDS011;38606;52.986;6.980;2022-11-20T03:06:28;20.08;;;11.73;;
52708;SDS011;38606;52.986;6.980;2022-11-20T03:08:53;19.45;;;12.27;;
52708;SDS011;38606;52.986;6.980;2022-11-20T03:11:19;20.02;;;11.85;;
52708;SDS011;38606;52.986;6.980;2022-11-20T03:13:45;18.83;;;11.82;;
52708;SDS011;38606;52.986;6.980;2022-11-20T03:16:12;22.20;;;11.13;;
52708;SDS011;38606;52.986;6.980;2022-11-20T03:18:40;17.88;;;11.27;;
52708;SDS011;38606;52.986;6.980;2022-11-20T03:21:07;19.83;;;11.77;;
52708;SDS011;38606;52.986;6.980;2022-11-20T03:23:33;17.90;;;11.07;;
52708;SDS011;38606;52.986;6.980;2022-11-20T03:26:10;18.33;;;11.43;;
52708;SDS011;38606;52.986;6.980;2022-11-20T03:28:56;20.42;;;12.10;;
52708;SDS011;38606;52.986;6.980;2022-11-20T03:31:24;20.58;;;12.00;;
52708;SDS011;38606;52.986;6.980;2022-11-20T03:34:02;19.02;;;11.32;;
52708;SDS011;38606;52.986;6.980;2022-11-20T03:36:28;18.58;;;11.57;;
52708;SDS011;38606;52.986;6.980;2022-11-20T03:38:55;19.75;;;10.95;;
52708;SDS011;38606;52.986;6.980;2022-11-20T03:41:22;18.42;;;11.38;;
52708;SDS011;38606;52.986;6.980;2022-11-20T03:43:50;17.42;;;11.00;;
52708;SDS011;38606;52.986;6.980;2022-11-20T03:46:20;19.83;;;11.70;;
52708;SDS011;38606;52.986;6.980;2022-11-20T03:48:46;21.65;;;12.02;;
52708;SDS011;38606;52.986;6.980;2022-11-20T03:53:43;20.98;;;11.35;;
52708;SDS011;38606;52.986;6.980;2022-11-20T03:56:10;21.38;;;11.70;;
52708;SDS011;38606;52.986;6.980;2022-11-20T03:58:37;19.90;;;11.80;;
52708;SDS011;38606;52.986;6.980;2022-11-20T04:01:09;20.38;;;11.63;;
52708;SDS011;38606;52.986;6.980;2022-11-20T04:03:41;19.67;;;11.50;;
52708;SDS011;38606;52.986;6.980;2022-11-20T04:06:12;18.85;;;11.48;;
52708;SDS011;38606;52.986;6.980;2022-11-20T04:08:45;19.58;;;12.18;;
52708;SDS011;38606;52.986;6.980;2022-11-20T04:13:41;18.23;;;12.15;;
52708;SDS011;38606;52.986;6.980;2022-11-20T04:16:11;19.33;;;11.48;;
52708;SDS011;38606;52.986;6.980;2022-11-20T04:18:36;17.85;;;11.45;;
52708;SDS011;38606;52.986;6.980;2022-11-20T04:21:02;19.92;;;11.93;;
52708;SDS011;38606;52.986;6.980;2022-11-20T04:23:29;20.60;;;12.75;;
52708;SDS011;38606;52.986;6.980;2022-11-20T04:25:54;19.13;;;11.65;;
52708;SDS011;38606;52.986;6.980;2022-11-20T04:28:25;19.00;;;11.20;;
52708;SDS011;38606;52.986;6.980;2022-11-20T04:30:50;19.05;;;11.23;;
52708;SDS011;38606;52.986;6.980;2022-11-20T04:33:16;19.30;;;11.63;;
52708;SDS011;38606;52.986;6.980;2022-11-20T04:35:42;17.75;;;11.70;;
52708;SDS011;38606;52.986;6.980;2022-11-20T04:38:09;16.63;;;10.85;;
52708;SDS011;38606;52.986;6.980;2022-11-20T04:40:35;19.45;;;11.65;;
52708;SDS011;38606;52.986;6.980;2022-11-20T04:43:00;17.98;;;10.82;;
52708;SDS011;38606;52.986;6.980;2022-11-20T04:45:26;17.23;;;11.10;;
52708;SDS011;38606;52.986;6.980;2022-11-20T04:47:51;18.70;;;11.13;;
52708;SDS011;38606;52.986;6.980;2022-11-20T04:50:18;17.25;;;11.00;;
52708;SDS011;38606;52.986;6.980;2022-11-20T04:52:43;22.00;;;11.85;;
52708;SDS011;38606;52.986;6.980;2022-11-20T04:55:09;20.23;;;11.60;;
52708;SDS011;38606;52.986;6.980;2022-11-20T04:57:34;19.63;;;12.07;;
52708;SDS011;38606;52.986;6.980;2022-11-20T05:00:00;21.20;;;11.90;;
52708;SDS011;38606;52.986;6.980;2022-11-20T05:02:26;19.05;;;11.43;;
52708;SDS011;38606;52.986;6.980;2022-11-20T05:04:51;18.83;;;11.00;;
52708;SDS011;38606;52.986;6.980;2022-11-20T05:07:17;20.17;;;12.27;;
52708;SDS011;38606;52.986;6.980;2022-11-20T05:09:43;19.70;;;12.20;;
52708;SDS011;38606;52.986;6.980;2022-11-20T05:12:09;18.13;;;11.52;;
52708;SDS011;38606;52.986;6.980;2022-11-20T05:14:34;22.80;;;12.77;;
52708;SDS011;38606;52.986;6.980;2022-11-20T05:17:00;20.13;;;12.73;;
52708;SDS011;38606;52.986;6.980;2022-11-20T05:19:26;19.92;;;12.27;;
52708;SDS011;38606;52.986;6.980;2022-11-20T05:21:51;19.92;;;11.38;;
52708;SDS011;38606;52.986;6.980;2022-11-20T05:24:17;18.70;;;11.35;;
52708;SDS011;38606;52.986;6.980;2022-11-20T05:26:43;17.30;;;10.63;;
52708;SDS011;38606;52.986;6.980;2022-11-20T05:29:10;19.25;;;11.68;;
52708;SDS011;38606;52.986;6.980;2022-11-20T05:31:38;19.42;;;11.63;;
52708;SDS011;38606;52.986;6.980;2022-11-20T05:34:07;16.73;;;10.93;;
52708;SDS011;38606;52.986;6.980;2022-11-20T05:36:33;18.55;;;11.05;;
52708;SDS011;38606;52.986;6.980;2022-11-20T05:38:59;16.10;;;10.23;;
52708;SDS011;38606;52.986;6.980;2022-11-20T05:41:24;16.30;;;10.77;;
52708;SDS011;38606;52.986;6.980;2022-11-20T05:43:50;17.35;;;11.13;;
52708;SDS011;38606;52.986;6.980;2022-11-20T05:46:18;18.55;;;11.32;;
52708;SDS011;38606;52.986;6.980;2022-11-20T05:48:45;19.48;;;11.23;;
52708;SDS011;38606;52.986;6.980;2022-11-20T05:51:13;16.50;;;10.35;;
52708;SDS011;38606;52.986;6.980;2022-11-20T05:53:40;17.15;;;10.27;;
52708;SDS011;38606;52.986;6.980;2022-11-20T05:56:07;16.60;;;10.40;;
52708;SDS011;38606;52.986;6.980;2022-11-20T05:58:35;16.60;;;10.38;;
52708;SDS011;38606;52.986;6.980;2022-11-20T06:01:08;17.08;;;9.88;;
52708;SDS011;38606;52.986;6.980;2022-11-20T06:03:42;14.93;;;9.50;;
52708;SDS011;38606;52.986;6.980;2022-11-20T06:06:11;16.88;;;10.13;;
52708;SDS011;38606;52.986;6.980;2022-11-20T06:08:37;17.20;;;10.90;;
52708;SDS011;38606;52.986;6.980;2022-11-20T06:11:03;16.60;;;10.23;;
52708;SDS011;38606;52.986;6.980;2022-11-20T06:13:30;15.48;;;9.77;;
52708;SDS011;38606;52.986;6.980;2022-11-20T06:15:56;16.08;;;9.93;;
52708;SDS011;38606;52.986;6.980;2022-11-20T06:18:21;15.45;;;9.95;;
52708;SDS011;38606;52.986;6.980;2022-11-20T06:20:47;16.63;;;10.38;;
52708;SDS011;38606;52.986;6.980;2022-11-20T06:23:13;14.50;;;9.63;;
52708;SDS011;38606;52.986;6.980;2022-11-20T06:25:40;16.65;;;9.63;;
52708;SDS011;38606;52.986;6.980;2022-11-20T06:28:06;16.55;;;10.25;;
52708;SDS011;38606;52.986;6.980;2022-11-20T06:30:33;16.08;;;9.48;;
52708;SDS011;38606;52.986;6.980;2022-11-20T06:32:59;17.13;;;10.18;;
52708;SDS011;38606;52.986;6.980;2022-11-20T06:35:25;14.57;;;10.15;;
52708;SDS011;38606;52.986;6.980;2022-11-20T06:37:51;18.65;;;10.60;;
52708;SDS011;38606;52.986;6.980;2022-11-20T06:40:17;17.10;;;10.23;;
52708;SDS011;38606;52.986;6.980;2022-11-20T06:42:42;14.48;;;9.38;;
52708;SDS011;38606;52.986;6.980;2022-11-20T06:45:08;17.02;;;10.23;;
52708;SDS011;38606;52.986;6.980;2022-11-20T06:47:34;15.77;;;10.07;;
52708;SDS011;38606;52.986;6.980;2022-11-20T06:50:00;15.05;;;9.80;;
52708;SDS011;38606;52.986;6.980;2022-11-20T06:52:26;17.00;;;10.15;;
52708;SDS011;38606;52.986;6.980;2022-11-20T06:54:51;17.67;;;10.88;;
52708;SDS011;38606;52.986;6.980;2022-11-20T06:57:17;15.15;;;10.18;;
52708;SDS011;38606;52.986;6.980;2022-11-20T06:59:43;15.95;;;9.65;;
52708;SDS011;38606;52.986;6.980;2022-11-20T07:02:11;16.83;;;10.13;;
52708;SDS011;38606;52.986;6.980;2022-11-20T07:04:37;16.52;;;10.10;;
52708;SDS011;38606;52.986;6.980;2022-11-20T07:07:04;18.00;;;10.40;;
52708;SDS011;38606;52.986;6.980;2022-11-20T07:09:31;16.40;;;9.85;;
52708;SDS011;38606;52.986;6.980;2022-11-20T07:11:57;15.32;;;9.45;;
52708;SDS011;38606;52.986;6.980;2022-11-20T07:14:23;16.05;;;9.98;;
52708;SDS011;38606;52.986;6.980;2022-11-20T07:16:48;17.42;;;10.68;;
52708;SDS011;38606;52.986;6.980;2022-11-20T07:19:14;15.27;;;10.40;;
52708;SDS011;38606;52.986;6.980;2022-11-20T07:21:40;16.88;;;10.05;;
52708;SDS011;38606;52.986;6.980;2022-11-20T07:24:06;18.80;;;10.80;;
52708;SDS011;38606;52.986;6.980;2022-11-20T07:26:32;15.70;;;10.38;;
52708;SDS011;38606;52.986;6.980;2022-11-20T07:28:57;15.35;;;9.98;;
52708;SDS011;38606;52.986;6.980;2022-11-20T07:31:23;17.40;;;10.48;;
52708;SDS011;38606;52.986;6.980;2022-11-20T07:33:49;19.48;;;10.70;;
52708;SDS011;38606;52.986;6.980;2022-11-20T07:36:15;16.38;;;10.85;;
52708;SDS011;38606;52.986;6.980;2022-11-20T07:38:40;17.52;;;9.60;;
52708;SDS011;38606;52.986;6.980;2022-11-20T07:41:06;20.45;;;11.30;;
52708;SDS011;38606;52.986;6.980;2022-11-20T07:43:32;16.88;;;10.60;;
52708;SDS011;38606;52.986;6.980;2022-11-20T07:45:58;16.38;;;10.20;;
52708;SDS011;38606;52.986;6.980;2022-11-20T07:48:24;17.23;;;10.20;;
52708;SDS011;38606;52.986;6.980;2022-11-20T07:50:53;16.08;;;10.00;;
52708;SDS011;38606;52.986;6.980;2022-11-20T07:53:19;16.23;;;9.80;;
52708;SDS011;38606;52.986;6.980;2022-11-20T07:55:46;16.33;;;9.95;;
52708;SDS011;38606;52.986;6.980;2022-11-20T07:58:12;15.38;;;9.52;;
52708;SDS011;38606;52.986;6.980;2022-11-20T08:00:39;15.80;;;9.60;;
52708;SDS011;38606;52.986;6.980;2022-11-20T08:03:05;18.85;;;10.63;;
52708;SDS011;38606;52.986;6.980;2022-11-20T08:05:31;15.60;;;9.43;;
52708;SDS011;38606;52.986;6.980;2022-11-20T08:07:57;15.85;;;9.60;;
52708;SDS011;38606;52.986;6.980;2022-11-20T08:10:23;14.77;;;9.35;;
52708;SDS011;38606;52.986;6.980;2022-11-20T08:12:50;13.73;;;9.55;;
52708;SDS011;38606;52.986;6.980;2022-11-20T08:15:35;16.33;;;9.93;;
52708;SDS011;38606;52.986;6.980;2022-11-20T08:18:11;17.30;;;10.32;;
52708;SDS011;38606;52.986;6.980;2022-11-20T08:20:37;16.48;;;9.95;;
52708;SDS011;38606;52.986;6.980;2022-11-20T08:23:04;15.60;;;10.35;;
52708;SDS011;38606;52.986;6.980;2022-11-20T08:25:31;15.07;;;9.55;;
52708;SDS011;38606;52.986;6.980;2022-11-20T08:27:59;16.20;;;10.27;;
52708;SDS011;38606;52.986;6.980;2022-11-20T08:30:25;17.40;;;9.43;;
52708;SDS011;38606;52.986;6.980;2022-11-20T08:32:51;20.23;;;10.43;;
52708;SDS011;38606;52.986;6.980;2022-11-20T08:35:17;14.45;;;9.27;;
52708;SDS011;38606;52.986;6.980;2022-11-20T08:37:45;14.25;;;9.07;;
52708;SDS011;38606;52.986;6.980;2022-11-20T08:40:12;13.55;;;9.23;;
52708;SDS011;38606;52.986;6.980;2022-11-20T08:42:45;12.95;;;9.02;;
52708;SDS011;38606;52.986;6.980;2022-11-20T08:45:14;14.60;;;9.43;;
52708;SDS011;38606;52.986;6.980;2022-11-20T08:47:41;15.93;;;8.68;;
52708;SDS011;38606;52.986;6.980;2022-11-20T08:50:08;14.45;;;9.10;;
52708;SDS011;38606;52.986;6.980;2022-11-20T08:52:34;15.35;;;9.65;;
52708;SDS011;38606;52.986;6.980;2022-11-20T08:55:00;15.32;;;9.00;;
52708;SDS011;38606;52.986;6.980;2022-11-20T08:57:25;14.20;;;8.95;;
52708;SDS011;38606;52.986;6.980;2022-11-20T08:59:51;15.10;;;8.73;;
52708;SDS011;38606;52.986;6.980;2022-11-20T09:02:17;14.73;;;9.02;;
52708;SDS011;38606;52.986;6.980;2022-11-20T09:04:42;14.95;;;9.57;;
52708;SDS011;38606;52.986;6.980;2022-11-20T09:07:08;13.27;;;8.77;;
52708;SDS011;38606;52.986;6.980;2022-11-20T09:09:34;14.25;;;9.07;;
52708;SDS011;38606;52.986;6.980;2022-11-20T09:12:00;14.85;;;9.07;;
52708;SDS011;38606;52.986;6.980;2022-11-20T09:14:25;17.30;;;10.07;;
52708;SDS011;38606;52.986;6.980;2022-11-20T09:16:57;15.77;;;9.57;;
52708;SDS011;38606;52.986;6.980;2022-11-20T09:19:26;13.63;;;8.60;;
52708;SDS011;38606;52.986;6.980;2022-11-20T09:21:51;15.70;;;9.63;;
52708;SDS011;38606;52.986;6.980;2022-11-20T09:24:17;14.30;;;9.20;;
52708;SDS011;38606;52.986;6.980;2022-11-20T09:26:43;13.57;;;8.98;;
52708;SDS011;38606;52.986;6.980;2022-11-20T09:29:09;13.85;;;9.35;;
52708;SDS011;38606;52.986;6.980;2022-11-20T09:31:35;13.32;;;9.10;;
52708;SDS011;38606;52.986;6.980;2022-11-20T09:34:01;14.98;;;8.70;;
52708;SDS011;38606;52.986;6.980;2022-11-20T09:36:27;13.55;;;8.90;;
52708;SDS011;38606;52.986;6.980;2022-11-20T09:38:53;15.88;;;9.30;;
52708;SDS011;38606;52.986;6.980;2022-11-20T09:44:07;11.98;;;8.40;;
52708;SDS011;38606;52.986;6.980;2022-11-20T09:47:00;13.80;;;8.30;;
52708;SDS011;38606;52.986;6.980;2022-11-20T09:49:42;13.73;;;8.65;;
52708;SDS011;38606;52.986;6.980;2022-11-20T09:55:20;12.40;;;8.45;;
52708;SDS011;38606;52.986;6.980;2022-11-20T09:57:47;13.50;;;8.77;;
52708;SDS011;38606;52.986;6.980;2022-11-20T10:00:16;13.18;;;8.55;;
52708;SDS011;38606;52.986;6.980;2022-11-20T10:02:49;13.25;;;8.75;;
52708;SDS011;38606;52.986;6.980;2022-11-20T10:05:41;13.63;;;9.02;;
52708;SDS011;38606;52.986;6.980;2022-11-20T10:08:34;11.60;;;8.00;;
52708;SDS011;38606;52.986;6.980;2022-11-20T10:11:19;13.77;;;8.65;;
52708;SDS011;38606;52.986;6.980;2022-11-20T10:16:44;14.40;;;8.27;;
52708;SDS011;38606;52.986;6.980;2022-11-20T10:19:30;12.23;;;8.38;;
52708;SDS011;38606;52.986;6.980;2022-11-20T10:25:46;11.32;;;7.78;;
52708;SDS011;38606;52.986;6.980;2022-11-20T10:28:28;11.48;;;8.20;;
52708;SDS011;38606;52.986;6.980;2022-11-20T10:31:17;9.52;;;7.15;;
52708;SDS011;38606;52.986;6.980;2022-11-20T10:33:55;11.63;;;7.82;;
52708;SDS011;38606;52.986;6.980;2022-11-20T10:36:26;11.13;;;7.30;;
52708;SDS011;38606;52.986;6.980;2022-11-20T10:39:06;11.55;;;8.18;;
52708;SDS011;38606;52.986;6.980;2022-11-20T10:41:41;14.60;;;8.83;;
52708;SDS011;38606;52.986;6.980;2022-11-20T10:44:17;11.35;;;7.95;;
52708;SDS011;38606;52.986;6.980;2022-11-20T10:47:05;13.52;;;8.70;;
52708;SDS011;38606;52.986;6.980;2022-11-20T10:49:46;12.45;;;7.97;;
52708;SDS011;38606;52.986;6.980;2022-11-20T10:52:29;12.18;;;8.32;;
52708;SDS011;38606;52.986;6.980;2022-11-20T10:58:09;11.77;;;8.05;;
52708;SDS011;38606;52.986;6.980;2022-11-20T11:00:39;11.05;;;7.55;;
52708;SDS011;38606;52.986;6.980;2022-11-20T11:03:14;12.32;;;8.02;;
52708;SDS011;38606;52.986;6.980;2022-11-20T11:08:42;13.13;;;8.20;;
52708;SDS011;38606;52.986;6.980;2022-11-20T11:11:20;12.40;;;8.10;;
52708;SDS011;38606;52.986;6.980;2022-11-20T11:13:48;11.25;;;7.75;;
52708;SDS011;38606;52.986;6.980;2022-11-20T11:16:26;12.00;;;8.18;;
52708;SDS011;38606;52.986;6.980;2022-11-20T11:19:03;12.82;;;8.68;;
52708;SDS011;38606;52.986;6.980;2022-11-20T11:21:29;10.98;;;7.55;;
52708;SDS011;38606;52.986;6.980;2022-11-20T11:23:59;11.02;;;7.32;;
52708;SDS011;38606;52.986;6.980;2022-11-20T11:26:27;12.20;;;7.53;;
52708;SDS011;38606;52.986;6.980;2022-11-20T11:28:59;14.15;;;7.55;;
52708;SDS011;38606;52.986;6.980;2022-11-20T11:34:05;16.73;;;8.63;;
52708;SDS011;38606;52.986;6.980;2022-11-20T11:36:38;10.93;;;8.02;;
52708;SDS011;38606;52.986;6.980;2022-11-20T11:39:04;11.15;;;7.93;;
52708;SDS011;38606;52.986;6.980;2022-11-20T11:41:35;12.70;;;7.93;;
52708;SDS011;38606;52.986;6.980;2022-11-20T11:44:15;12.82;;;8.00;;
52708;SDS011;38606;52.986;6.980;2022-11-20T11:47:03;12.95;;;8.30;;
52708;SDS011;38606;52.986;6.980;2022-11-20T11:49:33;10.82;;;7.78;;
52708;SDS011;38606;52.986;6.980;2022-11-20T12:00:13;10.63;;;7.43;;
52708;SDS011;38606;52.986;6.980;2022-11-20T12:05:17;13.38;;;7.25;;
52708;SDS011;38606;52.986;6.980;2022-11-20T12:16:11;10.90;;;7.05;;
52708;SDS011;38606;52.986;6.980;2022-11-20T12:18:39;11.00;;;7.25;;
52708;SDS011;38606;52.986;6.980;2022-11-20T12:24:06;10.30;;;7.18;;
52708;SDS011;38606;52.986;6.980;2022-11-20T12:30:09;10.68;;;6.47;;
52708;SDS011;38606;52.986;6.980;2022-11-20T12:43:27;10.07;;;6.97;;
52708;SDS011;38606;52.986;6.980;2022-11-20T12:52:10;9.88;;;6.43;;
52708;SDS011;38606;52.986;6.980;2022-11-20T12:54:46;8.95;;;6.32;;
52708;SDS011;38606;52.986;6.980;2022-11-20T12:57:18;8.65;;;6.40;;
52708;SDS011;38606;52.986;6.980;2022-11-20T13:02:41;10.82;;;7.18;;
52708;SDS011;38606;52.986;6.980;2022-11-20T13:05:24;9.40;;;6.75;;
52708;SDS011;38606;52.986;6.980;2022-11-20T13:07:53;9.65;;;7.15;;
52708;SDS011;38606;52.986;6.980;2022-11-20T13:13:22;13.77;;;8.07;;
52708;SDS011;38606;52.986;6.980;2022-11-20T13:16:15;11.52;;;7.05;;
52708;SDS011;38606;52.986;6.980;2022-11-20T13:18:49;11.00;;;7.13;;
52708;SDS011;38606;52.986;6.980;2022-11-20T13:21:18;11.82;;;7.30;;
52708;SDS011;38606;52.986;6.980;2022-11-20T13:23:47;10.85;;;7.75;;
52708;SDS011;38606;52.986;6.980;2022-11-20T13:26:15;11.10;;;7.63;;
52708;SDS011;38606;52.986;6.980;2022-11-20T13:38:41;10.30;;;7.38;;
52708;SDS011;38606;52.986;6.980;2022-11-20T13:41:22;9.82;;;7.35;;
52708;SDS011;38606;52.986;6.980;2022-11-20T13:44:04;10.20;;;7.38;;
52708;SDS011;38606;52.986;6.980;2022-11-20T13:46:41;13.00;;;8.15;;
52708;SDS011;38606;52.986;6.980;2022-11-20T13:51:44;12.15;;;8.02;;
52708;SDS011;38606;52.986;6.980;2022-11-20T13:54:28;13.07;;;8.43;;
52708;SDS011;38606;52.986;6.980;2022-11-20T14:02:37;12.88;;;8.35;;
52708;SDS011;38606;52.986;6.980;2022-11-20T14:05:03;13.23;;;8.70;;
52708;SDS011;38606;52.986;6.980;2022-11-20T14:07:40;12.38;;;8.20;;
52708;SDS011;38606;52.986;6.980;2022-11-20T14:10:19;13.15;;;8.80;;
52708;SDS011;38606;52.986;6.980;2022-11-20T14:12:46;15.48;;;9.20;;
52708;SDS011;38606;52.986;6.980;2022-11-20T14:15:34;13.88;;;8.75;;
52708;SDS011;38606;52.986;6.980;2022-11-20T14:17:59;13.88;;;9.13;;
52708;SDS011;38606;52.986;6.980;2022-11-20T14:20:44;12.93;;;8.00;;
52708;SDS011;38606;52.986;6.980;2022-11-20T14:23:10;11.80;;;8.07;;
52708;SDS011;38606;52.986;6.980;2022-11-20T14:25:36;13.10;;;8.68;;
52708;SDS011;38606;52.986;6.980;2022-11-20T14:28:10;10.45;;;7.43;;
52708;SDS011;38606;52.986;6.980;2022-11-20T14:30:44;12.23;;;8.38;;
52708;SDS011;38606;52.986;6.980;2022-11-20T14:33:13;11.43;;;7.63;;
52708;SDS011;38606;52.986;6.980;2022-11-20T14:36:01;11.20;;;8.18;;
52708;SDS011;38606;52.986;6.980;2022-11-20T14:38:27;12.25;;;7.70;;
52708;SDS011;38606;52.986;6.980;2022-11-20T14:40:53;13.88;;;8.35;;
52708;SDS011;38606;52.986;6.980;2022-11-20T14:43:24;16.52;;;8.65;;
52708;SDS011;38606;52.986;6.980;2022-11-20T14:46:04;13.68;;;8.40;;
52708;SDS011;38606;52.986;6.980;2022-11-20T14:48:35;11.63;;;7.85;;
52708;SDS011;38606;52.986;6.980;2022-11-20T14:51:11;12.10;;;8.00;;
52708;SDS011;38606;52.986;6.980;2022-11-20T14:54:19;10.88;;;7.47;;
52708;SDS011;38606;52.986;6.980;2022-11-20T14:57:18;10.88;;;7.38;;
52708;SDS011;38606;52.986;6.980;2022-11-20T15:02:43;12.35;;;7.80;;
52708;SDS011;38606;52.986;6.980;2022-11-20T15:05:11;11.73;;;8.02;;
52708;SDS011;38606;52.986;6.980;2022-11-20T15:07:41;11.60;;;7.57;;
52708;SDS011;38606;52.986;6.980;2022-11-20T15:12:51;11.65;;;7.60;;
52708;SDS011;38606;52.986;6.980;2022-11-20T15:15:19;12.07;;;8.02;;
52708;SDS011;38606;52.986;6.980;2022-11-20T15:17:50;14.65;;;8.35;;
52708;SDS011;38606;52.986;6.980;2022-11-20T15:20:16;12.02;;;8.00;;
52708;SDS011;38606;52.986;6.980;2022-11-20T15:22:42;18.13;;;7.97;;
52708;SDS011;38606;52.986;6.980;2022-11-20T15:25:12;12.35;;;8.10;;
52708;SDS011;38606;52.986;6.980;2022-11-20T15:27:43;14.18;;;8.23;;
52708;SDS011;38606;52.986;6.980;2022-11-20T15:30:17;12.65;;;7.85;;
52708;SDS011;38606;52.986;6.980;2022-11-20T15:32:44;12.90;;;8.60;;
52708;SDS011;38606;52.986;6.980;2022-11-20T15:35:11;13.23;;;8.30;;
52708;SDS011;38606;52.986;6.980;2022-11-20T15:37:38;12.98;;;8.38;;
52708;SDS011;38606;52.986;6.980;2022-11-20T15:40:04;14.80;;;8.13;;
52708;SDS011;38606;52.986;6.980;2022-11-20T15:42:31;15.43;;;8.90;;
52708;SDS011;38606;52.986;6.980;2022-11-20T15:44:57;14.40;;;9.57;;
52708;SDS011;38606;52.986;6.980;2022-11-20T15:47:25;12.98;;;9.18;;
52708;SDS011;38606;52.986;6.980;2022-11-20T15:49:54;16.25;;;8.63;;
52708;SDS011;38606;52.986;6.980;2022-11-20T15:52:20;13.50;;;9.25;;
52708;SDS011;38606;52.986;6.980;2022-11-20T15:54:46;16.58;;;9.20;;
52708;SDS011;38606;52.986;6.980;2022-11-20T15:57:12;12.95;;;8.52;;
52708;SDS011;38606;52.986;6.980;2022-11-20T15:59:38;17.73;;;8.95;;
52708;SDS011;38606;52.986;6.980;2022-11-20T16:02:12;14.35;;;9.80;;
52708;SDS011;38606;52.986;6.980;2022-11-20T16:04:38;15.27;;;9.18;;
52708;SDS011;38606;52.986;6.980;2022-11-20T16:07:04;13.27;;;8.95;;
52708;SDS011;38606;52.986;6.980;2022-11-20T16:09:30;14.55;;;10.02;;
52708;SDS011;38606;52.986;6.980;2022-11-20T16:11:55;16.10;;;9.73;;
52708;SDS011;38606;52.986;6.980;2022-11-20T16:14:24;16.85;;;9.77;;
52708;SDS011;38606;52.986;6.980;2022-11-20T16:17:08;16.38;;;8.80;;
52708;SDS011;38606;52.986;6.980;2022-11-20T16:19:34;24.85;;;11.18;;
52708;SDS011;38606;52.986;6.980;2022-11-20T16:22:00;16.17;;;9.43;;
52708;SDS011;38606;52.986;6.980;2022-11-20T16:24:26;14.48;;;9.18;;